CheckWX is a tool to help pilots better visualize weather data.  It is not intended as a substitute for an official pre-flight weather briefing.

05:50:42 UTC

KPHD METAR
Harry Clever Field Airport
New Philadelphia, Ohio, USA
Current

23 mins ago

KPHD 260528Z AUTO 36004KT 5SM BR OVC006 04/03 A2984 RMK AO2 RAE17 P0000 T00440033
Observed
Feb-26 @ 05:28 UTC
Wind
  • 360° at 4 KTS
Visibility
5 SM
Flight Rules
IFR
Conditions
Mist
Cloud Levels
  • Overcast at 600' AGL
Temperature
C / 39°F
Dewpoint
C / 37°F
Humidity
93%
Altimeter
29.84" Hg
Pressure
1010.52 hPa
Current Rain
0.01"
Previous

41 mins ago

KPHD 260510Z AUTO 02005KT 5SM -RA BR OVC005 04/03 A2984 RMK AO2 CIG 003V008 P0000 T00440033
Observed
Feb-26 @ 05:10 UTC
Wind
  • 020° at 5 KTS
Visibility
5 SM
Flight Rules
IFR
Conditions
Light Rain, Mist
Cloud Levels
  • Overcast at 500' AGL
Temperature
C / 39°F
Dewpoint
C / 37°F
Humidity
93%
Altimeter
29.84" Hg
Pressure
1010.52 hPa
Current Rain
0.01"
Previous

58 mins ago

KPHD 260453Z AUTO 36005KT 3SM -RA BR OVC004 05/04 A2984 RMK AO2 RAB04E24B43 SLP109 P0001 T00500039 400830044
Observed
Feb-26 @ 04:53 UTC
Wind
  • 360° at 5 KTS
Visibility
3 SM
Flight Rules
LIFR
Conditions
Light Rain, Mist
Cloud Levels
  • Overcast at 400' AGL
Temperature
C / 41°F
Dewpoint
C / 39°F
Humidity
93%
Altimeter
29.84" Hg
Pressure
1010.52 hPa
Current Rain
0.01"